Latest Weather Observations for Newman Airport

IDW60801

Issued at 6:23 am WST Wednesday 24 October 2018 (issued every 10 minutes, with the page automatically refreshed every 10 minutes)

About weather observations | Map of weather stations | Latest weather observations for WA | Other Formats
Station Details ID: 007176 Name: NEWMAN AERO Lat: -23.42 Lon: 119.80 Height: 524.0 m
Data from the previous 72 hours. | See also: Recent months at Newman Airport
Date/Time
WST
Temp
°C
App
Temp
°C
Dew
Point
°C
Rel
Hum
%
Delta-T
°C
Wind Press
QNH
hPa
Press
MSL
hPa
Rain since
9am
mm
Dir  Spd
km/h
Gust
km/h
Spd
kts
Gust
kts
24/06:00am 19.3 15.6 -4.9 19 9.9 WSW 6 7 3 4 1010.6 1007.2 0.0
24/05:30am 18.5 14.1 -5.5 19 9.6 WSW 9 9 5 5 1010.5 1007.1 0.0
24/05:00am 19.2 14.7 -6.4 17 10.2 WSW 9 13 5 7 1010.6 1007.2 0.0
24/04:30am 20.7 15.9 -6.0 16 10.8 WSW 11 13 6 7 1010.5 1007.1 0.0
24/04:00am 21.4 16.7 -5.4 16 11.1 WSW 11 15 6 8 1010.6 1007.2 0.0
24/03:30am 21.5 16.3 -6.2 15 11.3 W 13 13 7 7 1010.6 1007.2 0.0
24/03:00am 21.6 16.6 -8.0 13 11.7 WSW 11 15 6 8 1010.6 1007.2 0.0
24/02:30am 21.8 16.7 -9.9 11 12.1 WSW 11 13 6 7 1010.7 1007.3 0.0
24/02:00am 20.9 15.7 -10.6 11 11.7 SW 11 13 6 7 1010.7 1007.3 0.0
24/01:30am 20.4 15.6 -11.0 11 11.5 WSW 9 13 5 7 1010.6 1007.2 0.0
24/01:00am 20.3 15.5 -10.0 12 11.3 WSW 9 9 5 5 1010.5 1007.1 0.0
24/12:30am 20.3 15.5 -10.0 12 11.3 WSW 9 11 5 6 1010.7 1007.3 0.0
24/12:00am 20.8 16.4 -9.6 12 11.5 WSW 7 9 4 5 1010.9 1007.6 0.0
 
Date/Time
WST
Temp
°C
App
Temp
°C
Dew
Point
°C
Rel
Hum
%
Delta-T
°C
Wind Press
QNH
hPa
Press
MSL
hPa
Rain since
9am
mm
Dir  Spd
km/h
Gust
km/h
Spd
kts
Gust
kts
23/11:30pm 21.7 16.9 -10.0 11 12.0 SW 9 11 5 6 1011.2 1007.9 0.0
23/11:00pm 23.6 18.5 -9.8 10 13.0 WSW 11 15 6 8 1011.4 1008.0 0.0
23/10:30pm 23.6 18.5 -9.8 10 13.0 WSW 11 13 6 7 1011.6 1008.2 0.0
23/10:00pm 23.5 18.0 -9.8 10 12.9 WSW 13 17 7 9 1011.7 1008.3 0.0
23/09:30pm 24.1 19.9 -10.7 9 13.4 SSW 6 7 3 4 1011.8 1008.4 0.0
23/09:00pm 26.2 22.7 -10.6 8 14.5 SSE 2 6 1 3 1011.8 1008.4 0.0
23/08:30pm 26.0 22.6 -9.3 9 14.2 S 2 9 1 5 1011.7 1008.3 0.0
23/08:00pm 27.7 23.5 -9.5 8 15.2 SW 6 9 3 5 1011.4 1008.0 0.0
23/07:30pm 28.6 25.5 -10.5 7 15.8 CALM 0 0 0 0 1011.0 1007.7 0.0
23/07:00pm 30.8 26.7 -8.9 7 16.8 NNE 6 6 3 3 1010.7 1007.3 0.0
23/06:30pm 32.0 27.8 -10.0 6 17.6 WSW 6 7 3 4 1010.5 1007.1 0.0
23/06:00pm 34.8 30.4 -10.3 5 19.3 WSW 7 9 4 5 1010.3 1006.9 0.0
23/05:30pm 36.0 30.7 -12.3 4 20.2 WNW 11 17 6 9 1010.2 1006.8 0.0
23/05:00pm 36.6 31.7 -11.9 4 20.6 WSW 9 19 5 10 1010.1 1006.7 0.0
23/04:30pm 37.1 30.7 -11.6 4 20.8 W 17 30 9 16 1010.0 1006.6 0.0
23/04:00pm 36.7 31.6 -9.0 5 20.3 WNW 11 19 6 10 1010.1 1006.7 0.0
23/03:30pm 36.5 31.0 -9.2 5 20.2 W 13 24 7 13 1010.3 1006.9 0.0
23/03:00pm 36.4 30.2 -9.2 5 20.1 NW 17 32 9 17 1010.6 1007.2 0.0
23/02:30pm 36.5 31.0 -9.2 5 20.2 W 13 22 7 12 1010.9 1007.6 0.0
23/02:00pm 36.5 31.8 -9.2 5 20.2 WNW 9 17 5 9 1011.2 1007.9 0.0
23/01:30pm 35.7 30.2 -9.7 5 19.7 W 13 24 7 13 1011.7 1008.3 0.0
23/01:00pm 36.3 30.1 -9.3 5 20.1 N 17 26 9 14 1012.1 1008.7 0.0
23/12:30pm 35.7 30.6 -5.4 7 19.1 ENE 13 22 7 12 1012.3 1008.9 0.0
23/12:00pm 34.7 30.3 -6.1 7 18.7 SSE 9 15 5 8 1012.9 1009.6 0.0
23/11:30am 34.1 29.3 -6.5 7 18.4 N 11 22 6 12 1013.2 1009.9 0.0
23/11:00am 33.4 29.2 -3.7 9 17.5 E 9 19 5 10 1013.8 1010.4 0.0
23/10:30am 32.6 28.1 -2.9 10 16.8 ESE 11 20 6 11 1014.3 1011.0 0.0
23/10:00am 30.9 26.0 -3.0 11 15.9 ENE 13 20 7 11 1014.7 1011.4 0.0
23/09:30am 30.2 25.6 -1.2 13 15.1 E 13 20 7 11 1014.8 1011.5 0.0
23/09:00am 29.3 24.3 -0.9 14 14.5 E 15 22 8 12 1015.0 1011.7 0.0
23/08:30am 28.0 22.8 -0.1 16 13.5 E 17 24 9 13 1015.1 1011.8 0.0
23/08:00am 26.4 22.6 -0.6 17 12.7 ESE 9 15 5 8 1015.0 1011.7 0.0
23/07:30am 24.0 20.5 -1.0 19 11.5 SSE 7 13 4 7 1015.1 1011.8 0.0
23/07:00am 21.8 17.4 -2.1 20 10.6 SW 11 13 6 7 1015.1 1011.8 0.0
23/06:30am 20.2 16.2 -2.2 22 9.8 SW 9 13 5 7 1014.9 1011.6 0.0
23/06:00am 18.2 13.7 -3.2 23 9.0 SW 11 13 6 7 1014.7 1011.4 0.0
23/05:30am 17.1 12.6 -3.6 24 8.5 WSW 11 13 6 7 1014.3 1011.0 0.0
23/05:00am 17.7 12.8 -3.7 23 8.8 WSW 13 17 7 9 1014.0 1010.6 0.0
23/04:30am 17.8 13.6 -4.2 22 9.0 SW 9 13 5 7 1013.8 1010.4 0.0
23/04:00am 17.6 13.4 -4.3 22 8.9 SW 9 13 5 7 1013.6 1010.2 0.0
23/03:30am 18.1 13.8 -5.2 20 9.4 SW 9 13 5 7 1013.2 1009.9 0.0
23/03:00am 18.6 13.9 -5.4 19 9.7 WSW 11 15 6 8 1013.2 1009.9 0.0
23/02:30am 18.8 14.0 -6.0 18 9.9 SW 11 13 6 7 1013.2 1009.9 0.0
23/02:00am 19.0 14.1 -6.6 17 10.1 WSW 11 13 6 7 1013.2 1009.9 0.0
23/01:30am 19.2 15.0 -7.2 16 10.3 SW 7 9 4 5 1013.6 1010.2 0.0
23/01:00am 19.6 14.6 -7.7 15 10.6 WSW 11 13 6 7 1013.7 1010.3 0.0
23/12:30am 19.6 15.0 -7.7 15 10.6 WSW 9 11 5 6 1013.8 1010.4 0.0
23/12:00am 20.0 15.4 -8.3 14 10.9 WSW 9 11 5 6 1013.9 1010.5 0.0
 
Date/Time
WST
Temp
°C
App
Temp
°C
Dew
Point
°C
Rel
Hum
%
Delta-T
°C
Wind Press
QNH
hPa
Press
MSL
hPa
Rain since
9am
mm
Dir  Spd
km/h
Gust
km/h
Spd
kts
Gust
kts
22/11:30pm 20.2 15.6 -8.1 14 11.0 SW 9 11 5 6 1014.1 1010.7 0.0
22/11:00pm 21.5 17.3 -8.0 13 11.6 SW 7 9 4 5 1014.3 1011.0 0.0
22/10:30pm 23.9 19.2 -9.5 10 13.1 S 9 11 5 6 1014.2 1010.8 0.0
22/10:00pm 24.7 19.3 -8.9 10 13.4 SSW 13 19 7 10 1014.2 1010.8 0.0
22/09:30pm 24.1 19.4 -9.4 10 13.2 SW 9 11 5 6 1014.1 1010.7 0.0
22/09:00pm 25.0 20.0 -8.7 10 13.6 SW 11 13 6 7 1014.1 1010.7 0.0
22/08:30pm 25.3 20.7 -8.5 10 13.7 SW 9 11 5 6 1013.9 1010.5 0.0
22/08:00pm 26.9 22.2 -8.6 9 14.6 SW 9 11 5 6 1013.7 1010.3 0.0
22/07:30pm 28.4 23.7 -9.0 8 15.4 SSW 9 11 5 6 1013.4 1010.0 0.0
22/07:00pm 29.2 24.0 -10.1 7 16.1 SW 11 13 6 7 1013.0 1009.7 0.0
22/06:30pm 31.1 25.5 -10.7 6 17.2 SW 13 17 7 9 1012.7 1009.4 0.0
22/06:00pm 32.9 26.9 -11.7 5 18.4 SW 15 20 8 11 1012.4 1009.0 0.0
22/05:30pm 34.3 28.0 -10.7 5 19.0 SW 17 24 9 13 1012.2 1008.8 0.0
22/05:00pm 34.9 28.6 -10.3 5 19.4 SW 17 28 9 15 1012.0 1008.6 0.0
22/04:30pm 35.6 29.3 -9.8 5 19.7 SW 17 26 9 14 1011.9 1008.5 0.0
22/04:00pm 36.2 30.3 -9.4 5 20.0 WSW 15 22 8 12 1011.9 1008.5 0.0
22/03:30pm 35.6 29.0 -9.8 5 19.7 WSW 19 26 10 14 1012.2 1008.8 0.0
22/03:00pm 35.2 29.1 -7.7 6 19.2 WSW 17 32 9 17 1012.2 1008.8 0.0
22/02:30pm 35.9 29.8 -7.2 6 19.5 WSW 17 28 9 15 1012.7 1009.4 0.0
22/02:00pm 34.8 30.0 -6.0 7 18.7 NW 11 20 6 11 1013.1 1009.8 0.0
22/01:30pm 35.0 29.4 -5.9 7 18.8 WSW 15 33 8 18 1013.7 1010.3 0.0
22/01:00pm 34.5 28.2 -6.3 7 18.6 SW 19 33 10 18 1014.2 1010.8 0.0
22/12:30pm 34.0 29.5 -6.6 7 18.3 WNW 9 17 5 9 1014.6 1011.3 0.0
22/12:00pm 33.9 29.0 -6.7 7 18.3 SSW 11 24 6 13 1014.9 1011.6 0.0
22/11:30am 33.3 29.5 -3.8 9 17.4 ESE 7 13 4 7 1015.5 1012.1 0.0
22/11:00am 31.7 26.8 -3.6 10 16.4 S 13 19 7 10 1016.1 1012.8 0.0
22/10:30am 30.2 25.3 -3.5 11 15.6 SSE 13 20 7 11 1016.6 1013.3 0.0
22/10:00am 29.5 25.0 -2.9 12 15.0 SE 11 20 6 11 1017.0 1013.7 0.0
22/09:30am 29.4 24.2 -2.9 12 15.0 SSE 15 20 8 11 1017.2 1013.9 0.0
22/09:00am 28.8 24.0 -2.3 13 14.5 SE 13 24 7 13 1017.4 1014.0 0.0
22/08:30am 27.3 21.7 -2.5 14 13.7 SE 17 28 9 15 1017.4 1014.0 0.0
22/08:00am 26.3 20.4 -2.4 15 13.1 SE 19 26 10 14 1017.2 1013.9 0.0
22/07:30am 24.8 18.9 -1.9 17 12.2 SE 19 24 10 13 1017.0 1013.7 0.0
22/07:00am 23.0 17.4 -2.6 18 11.3 SSE 17 24 9 13 1016.8 1013.5 0.0
22/06:30am 21.3 17.3 -2.5 20 10.4 SSW 9 15 5 8 1016.6 1013.3 0.0
22/06:00am 18.8 14.0 -2.7 23 9.1 SW 13 17 7 9 1016.3 1013.0 0.0
22/05:30am 17.7 13.5 -3.7 23 8.8 SW 9 13 5 7 1016.0 1012.6 0.0
22/05:00am 17.2 12.6 -4.1 23 8.7 WSW 11 13 6 7 1015.7 1012.3 0.0
22/04:30am 17.9 13.3 -4.1 22 9.0 WSW 11 13 6 7 1015.4 1012.0 0.0
22/04:00am 19.0 14.7 -4.4 20 9.6 SW 9 13 5 7 1015.0 1011.7 0.0
22/03:30am 19.7 15.1 -3.9 20 9.9 WSW 11 13 6 7 1014.8 1011.5 0.0
22/03:00am 18.9 14.6 -4.5 20 9.6 SW 9 11 5 6 1014.6 1011.3 0.0
22/02:30am 20.2 15.9 -4.8 18 10.3 SW 9 11 5 6 1014.5 1011.2 0.0
22/02:00am 21.5 16.9 -4.5 17 11.0 SW 11 13 6 7 1014.4 1011.1 0.0
22/01:30am 22.1 17.4 -4.9 16 11.3 SW 11 13 6 7 1014.5 1011.2 0.0
22/01:00am 22.1 17.4 -4.9 16 11.3 WSW 11 15 6 8 1014.6 1011.3 0.0
22/12:30am 22.1 17.3 -5.7 15 11.5 WSW 11 13 6 7 1014.5 1011.2 0.0
22/12:00am 22.3 17.4 -7.4 13 11.9 SW 11 13 6 7 1014.5 1011.2 0.0
 
Date/Time
WST
Temp
°C
App
Temp
°C
Dew
Point
°C
Rel
Hum
%
Delta-T
°C
Wind Press
QNH
hPa
Press
MSL
hPa
Rain since
9am
mm
Dir  Spd
km/h
Gust
km/h
Spd
kts
Gust
kts
21/11:30pm 23.1 18.0 -8.9 11 12.6 WSW 11 13 6 7 1014.4 1011.1 0.0
21/11:00pm 23.6 18.5 -9.8 10 13.0 WSW 11 13 6 7 1014.5 1011.2 0.0
21/10:30pm 24.3 19.1 -10.6 9 13.4 WSW 11 15 6 8 1014.4 1011.1 0.0
21/10:00pm 25.1 19.9 -11.4 8 14.0 SW 11 13 6 7 1014.3 1011.0 0.0
21/09:30pm 26.3 20.6 -12.2 7 14.7 SW 13 15 7 8 1014.0 1010.6 0.0
21/09:00pm 27.4 21.8 -11.4 7 15.2 SW 13 17 7 9 1013.7 1010.3 0.0
21/08:30pm 28.2 22.6 -10.8 7 15.6 SW 13 17 7 9 1013.6 1010.2 0.0
21/08:00pm 29.2 23.9 -12.0 6 16.3 SW 11 15 6 8 1013.4 1010.0 0.0
21/07:30pm 30.5 24.9 -11.1 6 16.9 SW 13 17 7 9 1012.9 1009.6 0.0
21/07:00pm 31.8 25.5 -10.2 6 17.5 SW 17 20 9 11 1012.6 1009.3 0.0
21/06:30pm 32.9 26.5 -11.7 5 18.3 SW 17 24 9 13 1012.3 1008.9 0.0
21/06:00pm 34.5 27.2 -10.6 5 19.2 SW 22 33 12 18 1011.8 1008.4 0.0
21/05:30pm 36.0 29.4 -9.5 5 19.9 SW 19 28 10 15 1011.6 1008.2 0.0
21/05:00pm 37.0 30.4 -8.8 5 20.4 SW 19 33 10 18 1011.1 1007.8 0.0
21/04:30pm 37.4 30.3 -8.5 5 20.6 W 22 30 12 16 1011.2 1007.9 0.0
21/04:00pm 37.3 30.6 -8.6 5 20.6 SW 20 30 11 16 1011.0 1007.7 0.0
21/03:30pm 38.1 31.6 -8.1 5 21.0 W 19 30 10 16 1011.0 1007.7 0.0
21/03:00pm 38.0 30.9 -8.1 5 21.0 W 22 39 12 21 1011.2 1007.9 0.0
21/02:30pm 37.7 30.4 -6.0 6 20.5 W 24 39 13 21 1011.4 1008.0 0.0
21/02:00pm 38.2 30.7 -8.0 5 21.1 W 24 41 13 22 1012.0 1008.6 0.0
21/01:33pm 37.6 31.3 -6.0 6 20.4 WSW 19 46 10 25 1012.3 1008.9 0.0
21/01:30pm 37.5 31.6 -6.1 6 20.3 SW 17 24 9 13 1012.3 1008.9 0.0
21/01:00pm 37.1 30.7 -6.4 6 20.2 WSW 19 32 10 17 1012.9 1009.6 0.0
21/12:30pm 36.3 29.7 -7.0 6 19.8 W 20 39 11 21 1013.4 1010.0 0.0
21/12:00pm 37.0 31.2 -4.4 7 19.8 NW 17 30 9 16 1013.9 1010.5 0.0
21/11:30am 36.0 29.6 -5.2 7 19.3 WNW 20 37 11 20 1014.4 1011.1 0.0
21/11:00am 35.5 29.0 -5.5 7 19.0 NNW 20 37 11 20 1014.9 1011.6 0.0
21/10:30am 35.2 30.8 -5.7 7 18.9 NW 9 20 5 11 1015.4 1012.0 0.0
21/10:00am 34.0 29.5 -6.6 7 18.3 WSW 9 13 5 7 1015.8 1012.4 0.0
21/09:30am 32.7 29.1 -7.6 7 17.7 NNW 4 7 2 4 1016.2 1012.9 0.0
21/09:00am 31.9 28.0 -6.4 8 17.0 W 6 11 3 6 1016.4 1013.1 0.0
21/08:30am 29.4 25.3 -6.7 9 15.7 W 7 9 4 5 1016.5 1013.2 0.0
21/08:00am 27.7 23.2 -6.6 10 14.7 SW 9 13 5 7 1016.5 1013.2 0.0
21/07:30am 25.7 20.9 -5.8 12 13.5 WSW 11 15 6 8 1016.4 1013.1 0.0
21/07:00am 23.8 19.8 -5.3 14 12.3 WSW 7 13 4 7 1016.2 1012.9 0.0
21/06:30am 21.7 17.8 -4.4 17 11.0 W 7 9 4 5 1016.0 1012.6 0.0

Other Formats:

Comma delimited format used in spreadsheet applications
http://www.bom.gov.au/fwo/IDW60801/IDW60801.94317.axf

JavaScript Object Notation format (JSON) in row-major order
http://www.bom.gov.au/fwo/IDW60801/IDW60801.94317.json